Granville, NY (12832)

1:58 AM EDT on July 24, 2016 (GMT -0400)
Granville | | Change Station

Elev 449 ft 43.39 °N, 73.27 °W | Updated 8 minutes ago

Fog
Fog
57.9 °F
Feels Like 57.9 °F
N
0.0
Wind Variable Wind from SW
Gusts 1.0 mph

Today
High -- | Low -- °F
--% Chance of Precip.
Yesterday
High -- | Low -- °F
Precip. -- in
Pressure 29.95 in
Visibility 0.2 miles
Clouds
Dew Point 57 °F
Humidity 98%
Rainfall 0.01 in
Snow Depth Not available.
5:35 AM 8:23 PM
Waning Gibbous, 79% visible
METAR KGFL 240553Z AUTO 00000KT 1/4SM FG VV002 17/16 A2995 RMK AO2 SLP140 T01720161 10172 20156 51014
Pressure 29.95 in
Visibility 0.2 miles
Clouds
Dew Point 57 °F
Humidity 98%
Rainfall 0.01 in
Snow Depth Not available.
5:35 AM 8:23 PM
Waning Gibbous, 79% visible
METAR KGFL 240553Z AUTO 00000KT 1/4SM FG VV002 17/16 A2995 RMK AO2 SLP140 T01720161 10172 20156 51014

10-Day Weather Forecast

Almanac

Astronomy

Jul. 24, 2016 Rise Set
Actual Time
Civil Twilight
Nautical Twilight
Astronomical Twilight
Moon
Length of Visible Light
Length of Day
Tomorrow will be .
, % of the Moon is Illuminated

Today's Extremes

State Highs State Lows

Community

WunderPhotos

Upload Photos

1,927,039 photos uploaded!

WunderBlog® & News

Nearby

Air Quality

  Air Quality AQ Index Pollutant
Not available.

Snow Depth

Station Depth Elevation

Earthquake Activity

City Distance Mag. Time & Date
Minimum magnitude displayed is 2.5.

Coastal Water Temperatures

Place Temperature

Stations

Nearby Weather Stations

Station Location Temp. Windchill Dew Point Humidity Wind Precip. Elev Updated Type
                   

Watches & Warnings

There are currently no watches in effect.